createdAt,value
2023-01-15T00:00:06.663Z,993.22
2023-01-15T00:01:06.699Z,993.34
2023-01-15T00:02:06.630Z,993.30
2023-01-15T00:03:06.649Z,993.27
2023-01-15T00:04:06.592Z,993.26
2023-01-15T00:05:06.610Z,993.31
2023-01-15T00:06:06.593Z,993.30
2023-01-15T00:07:06.595Z,993.38
2023-01-15T00:08:06.559Z,993.31
2023-01-15T00:09:06.583Z,993.32
2023-01-15T00:10:06.528Z,993.35
2023-01-15T00:11:06.519Z,993.37
2023-01-15T00:12:06.510Z,993.39
2023-01-15T00:13:06.498Z,993.41
2023-01-15T00:14:06.486Z,993.40
2023-01-15T00:15:06.509Z,993.36
2023-01-15T00:16:06.598Z,993.43
2023-01-15T00:17:06.454Z,993.45
2023-01-15T00:18:06.444Z,993.55
2023-01-15T00:19:06.428Z,993.54
2023-01-15T00:20:06.412Z,993.50
2023-01-15T00:21:06.420Z,993.49
2023-01-15T00:22:06.439Z,993.55
2023-01-15T00:23:06.382Z,993.63
2023-01-15T00:24:06.386Z,993.67
2023-01-15T00:25:06.362Z,993.67
2023-01-15T00:26:06.366Z,993.66
2023-01-15T00:27:06.346Z,993.63
2023-01-15T00:28:06.367Z,993.65
2023-01-15T00:29:06.342Z,993.57
2023-01-15T00:30:06.347Z,993.60
2023-01-15T00:31:06.344Z,993.56
2023-01-15T00:32:06.312Z,993.59
2023-01-15T00:33:06.291Z,993.65
2023-01-15T00:34:06.271Z,993.71
2023-01-15T00:35:06.275Z,993.71
2023-01-15T00:36:06.263Z,993.70
2023-01-15T00:37:06.281Z,993.77
2023-01-15T00:38:06.235Z,993.68
2023-01-15T00:39:06.224Z,993.69
2023-01-15T00:40:06.219Z,993.75
2023-01-15T00:41:06.210Z,993.77
2023-01-15T00:42:06.187Z,993.79
2023-01-15T00:43:06.167Z,993.78
2023-01-15T00:44:06.171Z,993.81
2023-01-15T00:45:06.180Z,993.78
2023-01-15T00:46:06.177Z,993.74
2023-01-15T00:47:06.146Z,993.85
2023-01-15T00:48:06.104Z,993.82
2023-01-15T00:49:06.120Z,993.82
2023-01-15T00:50:06.106Z,993.87
2023-01-15T00:51:06.091Z,993.85
2023-01-15T00:52:06.058Z,994.08
2023-01-15T00:53:06.113Z,993.95
2023-01-15T00:54:06.061Z,993.92
2023-01-15T00:55:06.048Z,994.04
2023-01-15T00:56:06.023Z,993.97
2023-01-15T00:57:06.006Z,993.91
2023-01-15T00:58:05.998Z,993.96
2023-01-15T00:59:06.017Z,993.82
2023-01-15T01:00:06.005Z,993.94
2023-01-15T01:01:06.106Z,993.89
2023-01-15T01:02:06.063Z,994.05
2023-01-15T01:03:05.951Z,993.82
2023-01-15T01:04:05.940Z,993.92
2023-01-15T01:05:05.937Z,993.91
2023-01-15T01:06:05.905Z,993.86
2023-01-15T01:07:05.894Z,993.92
2023-01-15T01:08:05.968Z,993.94
2023-01-15T01:09:05.888Z,993.93
2023-01-15T01:10:05.878Z,993.93
2023-01-15T01:11:05.863Z,993.94
2023-01-15T01:12:05.851Z,993.97
2023-01-15T01:13:05.837Z,994.03
2023-01-15T01:14:05.838Z,994.10
2023-01-15T01:15:05.816Z,994.17
2023-01-15T01:16:05.843Z,994.24
2023-01-15T01:17:05.783Z,994.08
2023-01-15T01:18:05.800Z,994.13
2023-01-15T01:19:05.770Z,994.02
2023-01-15T01:20:05.770Z,994.05
2023-01-15T01:21:05.737Z,994.04
2023-01-15T01:22:05.728Z,994.01
2023-01-15T01:23:05.740Z,994.00
2023-01-15T01:24:05.703Z,994.01
2023-01-15T01:25:05.751Z,994.04
2023-01-15T01:26:05.705Z,994.02
2023-01-15T01:27:05.665Z,994.01
2023-01-15T01:28:05.680Z,994.05
2023-01-15T01:29:05.700Z,994.08
2023-01-15T01:30:05.668Z,994.06
2023-01-15T01:31:05.703Z,994.09
2023-01-15T01:32:05.625Z,994.18
2023-01-15T01:33:05.645Z,994.09
2023-01-15T01:34:05.611Z,994.16
2023-01-15T01:35:05.601Z,994.08
2023-01-15T01:36:05.614Z,994.15
2023-01-15T01:37:05.598Z,994.13
2023-01-15T01:38:05.562Z,994.15
2023-01-15T01:39:05.624Z,994.16
2023-01-15T01:40:05.524Z,994.21
2023-01-15T01:41:05.526Z,994.19
2023-01-15T01:42:05.534Z,994.23
2023-01-15T01:43:05.491Z,994.20
2023-01-15T01:44:05.522Z,994.20
2023-01-15T01:45:05.487Z,994.18
2023-01-15T01:46:05.581Z,994.22
2023-01-15T01:47:05.487Z,994.12
2023-01-15T01:48:05.446Z,994.17
2023-01-15T01:49:05.446Z,994.15
2023-01-15T01:50:05.420Z,994.10
2023-01-15T01:51:05.408Z,994.10
2023-01-15T01:52:05.395Z,994.04
2023-01-15T01:53:05.388Z,994.00
2023-01-15T01:54:05.414Z,994.07
2023-01-15T01:55:05.357Z,994.10
2023-01-15T01:56:05.366Z,994.05
2023-01-15T01:57:05.356Z,994.06
2023-01-15T01:58:05.352Z,994.09
2023-01-15T01:59:05.322Z,994.02
2023-01-15T02:00:05.321Z,994.06
2023-01-15T02:01:05.401Z,994.00
2023-01-15T02:02:05.413Z,993.97
2023-01-15T02:03:05.281Z,994.00
2023-01-15T02:04:05.283Z,994.02
2023-01-15T02:05:05.249Z,993.90
2023-01-15T02:06:05.245Z,994.09
2023-01-15T02:07:05.246Z,994.05
2023-01-15T02:08:05.239Z,994.05
2023-01-15T02:09:05.217Z,994.21
2023-01-15T02:10:05.220Z,994.22
2023-01-15T02:11:05.211Z,994.26
2023-01-15T02:12:05.172Z,994.17
2023-01-15T02:13:05.173Z,994.25
2023-01-15T02:14:05.147Z,994.12
2023-01-15T02:15:05.149Z,994.04
2023-01-15T02:16:05.215Z,994.16
2023-01-15T02:17:05.133Z,994.04
2023-01-15T02:18:05.094Z,993.97
2023-01-15T02:19:05.108Z,994.09
2023-01-15T02:20:05.076Z,993.99
2023-01-15T02:21:05.085Z,994.01
2023-01-15T02:22:05.087Z,993.93
2023-01-15T02:23:05.057Z,993.97
2023-01-15T02:24:05.032Z,993.96
2023-01-15T02:25:05.016Z,993.91
2023-01-15T02:26:05.026Z,993.84
2023-01-15T02:27:05.036Z,993.81
2023-01-15T02:28:05.025Z,993.75
2023-01-15T02:29:04.979Z,993.80
2023-01-15T02:30:04.964Z,993.87
2023-01-15T02:31:04.972Z,993.82
2023-01-15T02:32:04.954Z,993.79
2023-01-15T02:33:04.935Z,993.81
2023-01-15T02:34:04.943Z,993.83
2023-01-15T02:35:04.923Z,993.83
2023-01-15T02:36:04.932Z,993.88
2023-01-15T02:37:04.900Z,993.85
2023-01-15T02:38:04.891Z,993.91
2023-01-15T02:39:04.870Z,993.90
2023-01-15T02:40:04.875Z,993.90
2023-01-15T02:41:04.840Z,993.92
2023-01-15T02:42:04.833Z,993.91
2023-01-15T02:43:04.820Z,993.86
2023-01-15T02:44:04.829Z,993.74
2023-01-15T02:45:04.814Z,993.63
2023-01-15T02:46:04.913Z,993.69
2023-01-15T02:47:04.783Z,993.68
2023-01-15T02:48:04.759Z,993.64
2023-01-15T02:49:04.785Z,993.60
2023-01-15T02:50:04.736Z,993.56
2023-01-15T02:51:04.733Z,993.55
2023-01-15T02:52:04.736Z,993.51
2023-01-15T02:53:04.736Z,993.54
2023-01-15T02:54:04.709Z,993.60
2023-01-15T02:55:04.683Z,993.70
2023-01-15T02:56:04.669Z,993.65
2023-01-15T02:57:04.672Z,993.65
2023-01-15T02:58:04.673Z,993.72
2023-01-15T02:59:04.661Z,993.63
2023-01-15T03:00:04.626Z,993.58
2023-01-15T03:01:04.731Z,993.59
2023-01-15T03:02:04.748Z,993.56
2023-01-15T03:03:04.623Z,993.56
2023-01-15T03:04:04.629Z,993.52
2023-01-15T03:05:04.578Z,993.59
2023-01-15T03:06:04.610Z,993.61
2023-01-15T03:07:04.544Z,993.61
2023-01-15T03:08:04.551Z,993.57
2023-01-15T03:09:04.537Z,993.51
2023-01-15T03:10:04.556Z,993.56
2023-01-15T03:11:04.531Z,993.57
2023-01-15T03:12:04.500Z,993.60
2023-01-15T03:13:04.543Z,993.64
2023-01-15T03:14:04.486Z,993.58
2023-01-15T03:15:04.501Z,993.72
2023-01-15T03:16:04.466Z,993.72
2023-01-15T03:17:04.438Z,993.77
2023-01-15T03:18:04.445Z,993.77
2023-01-15T03:19:04.428Z,993.75
2023-01-15T03:20:04.425Z,993.78
2023-01-15T03:21:04.399Z,993.87
2023-01-15T03:22:04.416Z,993.77
2023-01-15T03:23:04.374Z,993.84
2023-01-15T03:24:04.369Z,993.76
2023-01-15T03:25:04.393Z,993.83
2023-01-15T03:26:04.342Z,993.87
2023-01-15T03:27:04.346Z,993.91
2023-01-15T03:28:04.341Z,993.96
2023-01-15T03:29:04.299Z,993.88
2023-01-15T03:30:04.291Z,993.90
2023-01-15T03:31:04.332Z,993.93
2023-01-15T03:32:04.275Z,993.93
2023-01-15T03:33:04.275Z,993.91
2023-01-15T03:34:04.243Z,993.90
2023-01-15T03:35:04.245Z,993.93
2023-01-15T03:36:04.300Z,993.90
2023-01-15T03:37:04.239Z,993.83
2023-01-15T03:38:04.204Z,993.89
2023-01-15T03:39:04.194Z,993.86
2023-01-15T03:40:04.197Z,993.88
2023-01-15T03:41:04.186Z,993.98
2023-01-15T03:42:04.160Z,993.93
2023-01-15T03:43:04.155Z,993.98
2023-01-15T03:44:04.201Z,994.00
2023-01-15T03:45:04.121Z,994.00
2023-01-15T03:46:04.156Z,994.15
2023-01-15T03:47:04.107Z,994.05
2023-01-15T03:48:04.106Z,994.00
2023-01-15T03:49:04.123Z,994.09
2023-01-15T03:50:04.098Z,994.06
2023-01-15T03:51:04.068Z,994.09
2023-01-15T03:52:04.048Z,994.08
2023-01-15T03:53:04.046Z,993.95
2023-01-15T03:54:04.110Z,993.93
2023-01-15T03:55:04.008Z,993.94
2023-01-15T03:56:04.010Z,993.98
2023-01-15T03:57:04.008Z,993.98
2023-01-15T03:58:03.975Z,993.94
2023-01-15T03:59:03.975Z,993.92
2023-01-15T04:00:03.962Z,993.82
2023-01-15T04:01:04.063Z,993.79
2023-01-15T04:02:04.050Z,993.78
2023-01-15T04:03:04.023Z,993.73
2023-01-15T04:04:04.020Z,993.65
2023-01-15T04:05:03.917Z,993.72
2023-01-15T04:06:03.919Z,993.73
2023-01-15T04:07:03.911Z,993.75
2023-01-15T04:08:03.897Z,993.75
2023-01-15T04:09:03.871Z,993.73
2023-01-15T04:10:03.867Z,993.67
2023-01-15T04:11:03.851Z,993.73
2023-01-15T04:12:03.818Z,993.74
2023-01-15T04:13:03.812Z,993.68
2023-01-15T04:14:03.828Z,993.64
2023-01-15T04:15:03.785Z,993.72
2023-01-15T04:16:03.844Z,993.74
2023-01-15T04:17:03.787Z,993.68
2023-01-15T04:18:03.772Z,993.65
2023-01-15T04:19:03.749Z,993.59
2023-01-15T04:20:03.728Z,993.51
2023-01-15T04:21:05.529Z,993.45
2023-01-15T04:22:03.711Z,993.43
2023-01-15T04:23:03.714Z,993.42
2023-01-15T04:24:03.700Z,993.46
2023-01-15T04:25:03.693Z,993.47
2023-01-15T04:26:03.681Z,993.42
2023-01-15T04:27:03.671Z,993.38
2023-01-15T04:28:03.644Z,993.38
2023-01-15T04:29:03.657Z,993.42
2023-01-15T04:30:03.637Z,993.41
2023-01-15T04:31:03.692Z,993.51
2023-01-15T04:32:03.602Z,993.51
2023-01-15T04:33:03.600Z,993.50
2023-01-15T04:34:03.593Z,993.46
2023-01-15T04:35:03.588Z,993.49
2023-01-15T04:36:03.565Z,993.48
2023-01-15T04:37:03.542Z,993.51
2023-01-15T04:38:03.531Z,993.54
2023-01-15T04:39:03.561Z,993.58
2023-01-15T04:40:03.557Z,993.54
2023-01-15T04:41:03.499Z,993.60
2023-01-15T04:42:03.485Z,993.61
2023-01-15T04:43:03.471Z,993.66
2023-01-15T04:44:03.461Z,993.69
2023-01-15T04:45:03.460Z,993.69
2023-01-15T04:46:03.535Z,993.53
2023-01-15T04:47:03.459Z,993.63
2023-01-15T04:48:03.432Z,993.72
2023-01-15T04:49:03.431Z,993.82
2023-01-15T04:50:03.418Z,993.87
2023-01-15T04:51:03.408Z,993.85
2023-01-15T04:52:03.388Z,993.76
2023-01-15T04:53:03.370Z,993.64
2023-01-15T04:54:03.350Z,993.65
2023-01-15T04:55:03.346Z,993.59
2023-01-15T04:56:03.353Z,993.46
2023-01-15T04:57:03.316Z,993.58
2023-01-15T04:58:03.306Z,993.52
2023-01-15T04:59:03.314Z,993.42
2023-01-15T05:00:03.295Z,993.64
2023-01-15T05:01:03.455Z,993.72
2023-01-15T05:02:06.394Z,993.78
2023-01-15T05:03:03.269Z,993.73
2023-01-15T05:04:03.444Z,993.71
2023-01-15T05:05:03.253Z,993.67
2023-01-15T05:06:03.240Z,993.58
2023-01-15T05:07:03.218Z,993.62
2023-01-15T05:08:03.230Z,993.49
2023-01-15T05:09:03.193Z,993.60
2023-01-15T05:10:03.223Z,993.58
2023-01-15T05:11:03.173Z,993.70
2023-01-15T05:12:03.153Z,993.77
2023-01-15T05:13:03.190Z,993.68
2023-01-15T05:14:03.146Z,993.70
2023-01-15T05:15:03.150Z,993.70
2023-01-15T05:16:03.160Z,993.66
2023-01-15T05:17:03.120Z,993.72
2023-01-15T05:18:03.098Z,993.88
2023-01-15T05:19:03.071Z,993.72
2023-01-15T05:20:03.104Z,993.87
2023-01-15T05:21:03.054Z,993.56
2023-01-15T05:22:03.049Z,993.80
2023-01-15T05:23:03.068Z,993.58
2023-01-15T05:24:03.056Z,993.61
2023-01-15T05:25:03.032Z,993.60
2023-01-15T05:26:03.019Z,993.66
2023-01-15T05:27:02.996Z,993.45
2023-01-15T05:28:02.972Z,993.67
2023-01-15T05:29:02.987Z,993.76
2023-01-15T05:30:02.997Z,993.92
2023-01-15T05:31:02.992Z,993.89
2023-01-15T05:32:02.955Z,994.06
2023-01-15T05:33:02.909Z,993.99
2023-01-15T05:34:02.925Z,993.77
2023-01-15T05:35:02.912Z,993.88
2023-01-15T05:36:02.890Z,993.94
2023-01-15T05:37:02.892Z,993.91
2023-01-15T05:38:02.856Z,994.04
2023-01-15T05:39:02.867Z,993.96
2023-01-15T05:40:02.831Z,994.05
2023-01-15T05:41:02.828Z,993.94
2023-01-15T05:42:02.820Z,993.95
2023-01-15T05:43:02.825Z,993.93
2023-01-15T05:44:02.791Z,993.95
2023-01-15T05:45:02.803Z,994.02
2023-01-15T05:46:02.855Z,993.89
2023-01-15T05:47:02.772Z,993.94
2023-01-15T05:48:02.771Z,993.98
2023-01-15T05:49:02.772Z,993.92
2023-01-15T05:50:02.736Z,994.11
2023-01-15T05:51:02.735Z,994.02
2023-01-15T05:52:02.736Z,994.02
2023-01-15T05:53:02.696Z,994.01
2023-01-15T05:54:02.695Z,994.01
2023-01-15T05:55:02.677Z,993.95
2023-01-15T05:56:02.688Z,994.04
2023-01-15T05:57:02.644Z,993.82
2023-01-15T05:58:02.666Z,993.98
2023-01-15T05:59:02.646Z,994.04
2023-01-15T06:00:02.673Z,994.05
2023-01-15T06:01:02.665Z,994.00
2023-01-15T06:02:02.630Z,993.97
2023-01-15T06:03:02.638Z,993.92
2023-01-15T06:04:02.666Z,994.01
2023-01-15T06:05:02.579Z,994.12
2023-01-15T06:06:02.565Z,994.13
2023-01-15T06:07:02.554Z,994.15
2023-01-15T06:08:02.559Z,994.21
2023-01-15T06:09:02.515Z,994.20
2023-01-15T06:10:02.518Z,994.23
2023-01-15T06:11:02.503Z,994.28
2023-01-15T06:12:02.509Z,994.33
2023-01-15T06:13:02.480Z,994.37
2023-01-15T06:14:02.473Z,994.44
2023-01-15T06:15:02.477Z,994.40
2023-01-15T06:16:02.494Z,994.41
2023-01-15T06:17:02.428Z,994.40
2023-01-15T06:18:02.423Z,994.44
2023-01-15T06:19:02.453Z,994.42
2023-01-15T06:20:02.400Z,994.49
2023-01-15T06:21:02.396Z,994.44
2023-01-15T06:22:02.390Z,994.43
2023-01-15T06:23:02.353Z,994.38
2023-01-15T06:24:02.377Z,994.40
2023-01-15T06:25:02.357Z,994.40
2023-01-15T06:26:02.340Z,994.43
2023-01-15T06:27:02.333Z,994.47
2023-01-15T06:28:02.319Z,994.46
2023-01-15T06:29:02.306Z,994.55
2023-01-15T06:30:02.292Z,994.62
2023-01-15T06:31:02.329Z,994.66
2023-01-15T06:32:02.259Z,994.66
2023-01-15T06:33:02.260Z,994.68
2023-01-15T06:34:02.252Z,994.91
2023-01-15T06:35:02.255Z,994.89
2023-01-15T06:36:02.213Z,994.86
2023-01-15T06:37:02.220Z,994.91
2023-01-15T06:38:02.192Z,994.81
2023-01-15T06:39:04.450Z,994.84
2023-01-15T06:40:02.178Z,994.78
2023-01-15T06:41:02.153Z,994.63
2023-01-15T06:42:02.170Z,994.65
2023-01-15T06:43:02.140Z,994.64
2023-01-15T06:44:02.135Z,994.71
2023-01-15T06:45:02.147Z,994.62
2023-01-15T06:46:02.114Z,994.53
2023-01-15T06:47:02.104Z,994.37
2023-01-15T06:48:02.075Z,994.46
2023-01-15T06:49:02.122Z,994.51
2023-01-15T06:50:02.060Z,994.38
2023-01-15T06:51:02.051Z,994.44
2023-01-15T06:52:02.051Z,994.49
2023-01-15T06:53:02.034Z,994.43
2023-01-15T06:54:02.027Z,994.49
2023-01-15T06:55:02.021Z,994.48
2023-01-15T06:56:02.000Z,994.37
2023-01-15T06:57:02.001Z,994.36
2023-01-15T06:58:01.978Z,994.33
2023-01-15T06:59:01.976Z,994.36
2023-01-15T07:00:01.972Z,994.38
2023-01-15T07:01:02.075Z,994.48
2023-01-15T07:02:01.950Z,994.53
2023-01-15T07:03:01.907Z,994.56
2023-01-15T07:04:01.959Z,994.54
2023-01-15T07:05:01.907Z,994.54
2023-01-15T07:06:01.887Z,994.65
2023-01-15T07:07:01.878Z,994.57
2023-01-15T07:08:01.869Z,994.53
2023-01-15T07:09:01.847Z,994.63
2023-01-15T07:10:01.847Z,994.65
2023-01-15T07:11:01.848Z,994.73
2023-01-15T07:12:01.830Z,994.76
2023-01-15T07:13:01.797Z,994.78
2023-01-15T07:14:01.791Z,994.77
2023-01-15T07:15:01.797Z,994.70
2023-01-15T07:16:01.823Z,994.81
2023-01-15T07:17:01.771Z,994.80
2023-01-15T07:18:01.747Z,994.92
2023-01-15T07:19:01.743Z,994.94
2023-01-15T07:20:01.724Z,994.89
2023-01-15T07:21:01.719Z,994.91
2023-01-15T07:22:01.707Z,994.75
2023-01-15T07:23:01.693Z,994.75
2023-01-15T07:24:01.702Z,994.82
2023-01-15T07:25:01.712Z,994.76
2023-01-15T07:26:01.671Z,994.93
2023-01-15T07:27:01.673Z,994.80
2023-01-15T07:28:01.632Z,994.54
2023-01-15T07:29:01.623Z,994.70
2023-01-15T07:30:01.627Z,994.69
2023-01-15T07:31:01.643Z,994.51
2023-01-15T07:32:01.600Z,994.59
2023-01-15T07:33:01.577Z,994.76
2023-01-15T07:34:01.582Z,994.78
2023-01-15T07:35:01.573Z,994.77
2023-01-15T07:36:01.565Z,994.90
2023-01-15T07:37:01.573Z,994.77
2023-01-15T07:38:01.532Z,994.89
2023-01-15T07:39:01.523Z,994.89
2023-01-15T07:40:01.544Z,994.93
2023-01-15T07:41:01.522Z,994.88
2023-01-15T07:42:01.544Z,994.69
2023-01-15T07:43:01.466Z,994.87
2023-01-15T07:44:01.455Z,994.65
2023-01-15T07:45:01.474Z,994.89
2023-01-15T07:46:01.497Z,994.89
2023-01-15T07:47:01.449Z,994.90
2023-01-15T07:48:01.413Z,994.74
2023-01-15T07:49:01.413Z,994.85
2023-01-15T07:50:01.402Z,994.71
2023-01-15T07:51:01.414Z,994.98
2023-01-15T07:52:01.364Z,994.86
2023-01-15T07:53:01.369Z,994.89
2023-01-15T07:54:01.362Z,994.75
2023-01-15T07:55:01.352Z,994.88
2023-01-15T07:56:01.339Z,994.95
2023-01-15T07:57:01.333Z,994.93
2023-01-15T07:58:01.319Z,994.89
2023-01-15T07:59:01.296Z,995.06
2023-01-15T08:00:01.277Z,994.95
2023-01-15T08:01:01.387Z,995.08
2023-01-15T08:02:01.408Z,994.98
2023-01-15T08:03:01.259Z,994.95
2023-01-15T08:04:01.263Z,995.08
2023-01-15T08:05:01.236Z,995.05
2023-01-15T08:06:01.233Z,994.94
2023-01-15T08:07:01.200Z,995.04
2023-01-15T08:08:01.189Z,995.04
2023-01-15T08:09:01.195Z,994.93
2023-01-15T08:10:01.194Z,994.89
2023-01-15T08:11:01.196Z,994.99
2023-01-15T08:12:01.159Z,994.98
2023-01-15T08:13:01.148Z,995.02
2023-01-15T08:14:01.134Z,995.02
2023-01-15T08:15:01.134Z,994.99
2023-01-15T08:16:01.108Z,995.02
2023-01-15T08:17:01.110Z,995.01
2023-01-15T08:18:01.078Z,994.99
2023-01-15T08:19:01.076Z,995.13
2023-01-15T08:20:01.058Z,995.27
2023-01-15T08:21:01.053Z,995.16
2023-01-15T08:22:01.043Z,995.24
2023-01-15T08:23:01.042Z,995.33
2023-01-15T08:24:01.025Z,995.30
2023-01-15T08:25:01.019Z,995.35
2023-01-15T08:26:01.006Z,995.36
2023-01-15T08:27:00.993Z,995.27
2023-01-15T08:28:00.975Z,995.32
2023-01-15T08:29:00.960Z,995.42
2023-01-15T08:30:00.971Z,995.35
2023-01-15T08:31:00.933Z,995.39
2023-01-15T08:32:03.159Z,995.34
2023-01-15T08:33:00.974Z,995.37
2023-01-15T08:34:00.907Z,995.37
2023-01-15T08:35:00.907Z,995.42
2023-01-15T08:36:00.886Z,995.44
2023-01-15T08:37:00.870Z,995.44
2023-01-15T08:38:00.871Z,995.45
2023-01-15T08:39:00.870Z,995.46
2023-01-15T08:40:00.830Z,995.45
2023-01-15T08:41:00.846Z,995.45
2023-01-15T08:42:00.818Z,995.45
2023-01-15T08:43:00.799Z,995.46
2023-01-15T08:44:00.811Z,995.46
2023-01-15T08:45:00.803Z,995.45
2023-01-15T08:46:00.826Z,995.37
2023-01-15T08:47:00.769Z,995.32
2023-01-15T08:48:00.783Z,995.43
2023-01-15T08:49:00.736Z,995.32
2023-01-15T08:50:00.738Z,995.41
2023-01-15T08:51:00.728Z,995.41
2023-01-15T08:52:00.707Z,995.41
2023-01-15T08:53:00.696Z,995.40
2023-01-15T08:54:00.707Z,995.48
2023-01-15T08:55:00.673Z,995.23
2023-01-15T08:56:00.677Z,995.38
2023-01-15T08:57:00.660Z,995.45
2023-01-15T08:58:00.646Z,995.49
2023-01-15T08:59:00.634Z,995.52
2023-01-15T09:00:00.648Z,995.58
2023-01-15T09:01:00.677Z,995.56
2023-01-15T09:02:00.719Z,995.59
2023-01-15T09:03:00.603Z,995.54
2023-01-15T09:04:00.574Z,995.54
2023-01-15T09:05:00.694Z,995.50
2023-01-15T09:06:00.539Z,995.48
2023-01-15T09:07:00.692Z,995.59
2023-01-15T09:08:00.525Z,995.47
2023-01-15T09:09:00.540Z,995.57
2023-01-15T09:10:00.511Z,995.59
2023-01-15T09:11:00.505Z,995.58
2023-01-15T09:12:00.500Z,995.57
2023-01-15T09:13:00.497Z,995.65
2023-01-15T09:14:00.498Z,995.63
2023-01-15T09:15:03.291Z,995.70
2023-01-15T09:16:00.432Z,995.55
2023-01-15T09:17:00.442Z,995.49
2023-01-15T09:18:00.404Z,995.49
2023-01-15T09:19:00.392Z,995.47
2023-01-15T09:20:00.401Z,995.58
2023-01-15T09:21:00.382Z,995.61
2023-01-15T09:22:00.366Z,995.59
2023-01-15T09:23:00.384Z,995.62
2023-01-15T09:24:00.341Z,995.57
2023-01-15T09:25:00.354Z,995.59
2023-01-15T09:26:00.354Z,995.57
2023-01-15T09:27:00.318Z,995.50
2023-01-15T09:28:00.305Z,995.55
2023-01-15T09:29:00.297Z,995.49
2023-01-15T09:30:00.345Z,995.56
2023-01-15T09:31:00.367Z,995.63
2023-01-15T09:32:00.274Z,995.65
2023-01-15T09:33:00.257Z,995.65
2023-01-15T09:34:00.233Z,995.66
2023-01-15T09:35:00.219Z,995.64
2023-01-15T09:36:00.266Z,995.61
2023-01-15T09:37:00.194Z,995.73
2023-01-15T09:38:00.185Z,995.61
2023-01-15T09:39:00.186Z,995.65
2023-01-15T09:40:00.167Z,995.55
2023-01-15T09:41:00.171Z,995.66
2023-01-15T09:42:00.159Z,995.54
2023-01-15T09:43:00.130Z,995.66
2023-01-15T09:44:00.131Z,995.65
2023-01-15T09:45:00.171Z,995.56
2023-01-15T09:46:00.190Z,995.51
2023-01-15T09:47:00.118Z,995.47
2023-01-15T09:48:00.142Z,995.46
2023-01-15T09:49:00.067Z,995.49
2023-01-15T09:50:00.112Z,995.46
2023-01-15T09:51:00.067Z,995.51
2023-01-15T09:52:00.046Z,995.45
2023-01-15T09:53:00.048Z,995.49
2023-01-15T09:54:00.022Z,995.54
2023-01-15T09:55:00.014Z,995.51
2023-01-15T09:56:00.005Z,995.50
2023-01-15T09:56:59.972Z,995.54
2023-01-15T09:57:59.982Z,995.53
2023-01-15T09:58:59.972Z,995.59
2023-01-15T09:59:59.966Z,995.57
2023-01-15T10:00:59.964Z,995.54
2023-01-15T10:01:59.933Z,995.57
2023-01-15T10:02:59.987Z,995.65
2023-01-15T10:03:59.990Z,995.54
2023-01-15T10:04:59.923Z,995.55
2023-01-15T10:05:59.872Z,995.53
2023-01-15T10:06:59.870Z,995.67
2023-01-15T10:07:59.852Z,995.50
2023-01-15T10:08:59.854Z,995.54
2023-01-15T10:09:59.851Z,995.60
2023-01-15T10:10:59.823Z,995.67
2023-01-15T10:11:59.828Z,995.61
2023-01-15T10:12:59.807Z,995.54
2023-01-15T10:13:59.799Z,995.61
2023-01-15T10:14:59.784Z,995.58
2023-01-15T10:15:59.805Z,995.58
2023-01-15T10:16:59.761Z,995.43
2023-01-15T10:17:59.758Z,995.50
2023-01-15T10:18:59.748Z,995.55
2023-01-15T10:19:59.753Z,995.61
2023-01-15T10:20:59.722Z,995.54
2023-01-15T10:21:59.702Z,995.60
2023-01-15T10:22:59.953Z,995.60
2023-01-15T10:23:59.709Z,995.84
2023-01-15T10:24:59.677Z,995.65
2023-01-15T10:25:59.686Z,995.73
2023-01-15T10:26:59.646Z,995.82
2023-01-15T10:27:59.646Z,995.76
2023-01-15T10:28:59.629Z,995.82
2023-01-15T10:29:59.604Z,995.82
2023-01-15T10:30:59.642Z,995.90
2023-01-15T10:31:59.601Z,995.91
2023-01-15T10:33:03.422Z,995.90
2023-01-15T10:33:59.603Z,996.01
2023-01-15T10:34:59.565Z,996.04
2023-01-15T10:35:59.544Z,996.09
2023-01-15T10:36:59.537Z,996.13
2023-01-15T10:37:59.541Z,996.14
2023-01-15T10:38:59.509Z,996.23
2023-01-15T10:39:59.508Z,996.24
2023-01-15T10:40:59.494Z,996.24
2023-01-15T10:41:59.475Z,996.22
2023-01-15T10:42:59.457Z,996.25
2023-01-15T10:43:59.469Z,996.26
2023-01-15T10:44:59.451Z,996.35
2023-01-15T10:45:59.495Z,996.23
2023-01-15T10:46:59.443Z,996.24
2023-01-15T10:47:59.427Z,996.31
2023-01-15T10:48:59.451Z,996.20
2023-01-15T10:49:59.399Z,996.27
2023-01-15T10:50:59.385Z,996.16
2023-01-15T10:51:59.398Z,996.05
2023-01-15T10:52:59.346Z,996.23
2023-01-15T10:53:59.332Z,996.15
2023-01-15T10:54:59.331Z,996.22
2023-01-15T10:55:59.581Z,996.15
2023-01-15T10:56:59.304Z,996.13
2023-01-15T10:58:09.765Z,996.11
2023-01-15T10:59:00.286Z,996.21
2023-01-15T10:59:59.300Z,996.09
2023-01-15T11:00:59.311Z,996.13
2023-01-15T11:01:59.389Z,995.89
2023-01-15T11:02:59.270Z,995.91
2023-01-15T11:03:59.227Z,995.85
2023-01-15T11:04:59.230Z,995.96
2023-01-15T11:05:59.233Z,995.90
2023-01-15T11:06:59.189Z,995.97
2023-01-15T11:08:39.416Z,996.03
2023-01-15T11:09:10.206Z,995.88
2023-01-15T11:10:00.184Z,995.86
2023-01-15T11:10:59.141Z,995.84
2023-01-15T11:11:59.172Z,995.89
2023-01-15T11:12:59.121Z,995.88
2023-01-15T11:13:59.128Z,996.01
2023-01-15T11:14:59.106Z,996.11
2023-01-15T11:15:59.187Z,995.80
2023-01-15T11:16:59.119Z,995.96
2023-01-15T11:17:59.111Z,995.92
2023-01-15T11:18:59.071Z,995.85
2023-01-15T11:19:59.053Z,995.92
2023-01-15T11:20:59.047Z,995.76
2023-01-15T11:21:59.034Z,995.90
2023-01-15T11:22:59.014Z,995.91
2023-01-15T11:23:59.018Z,995.97
2023-01-15T11:24:58.997Z,995.86
2023-01-15T11:25:58.986Z,995.84
2023-01-15T11:26:58.961Z,995.95
2023-01-15T11:27:58.967Z,995.87
2023-01-15T11:28:58.958Z,995.89
2023-01-15T11:29:58.970Z,995.86
2023-01-15T11:30:58.960Z,996.24
2023-01-15T11:31:58.912Z,995.99
2023-01-15T11:32:58.902Z,995.93
2023-01-15T11:33:58.883Z,995.86
2023-01-15T11:34:58.883Z,995.98
2023-01-15T11:35:58.899Z,995.66
2023-01-15T11:36:58.855Z,995.89
2023-01-15T11:37:58.859Z,995.64
2023-01-15T11:38:58.850Z,995.94
2023-01-15T11:39:58.819Z,995.89
2023-01-15T11:40:58.820Z,995.89
2023-01-15T11:41:58.819Z,995.76
2023-01-15T11:42:58.801Z,996.05
2023-01-15T11:43:58.786Z,995.78
2023-01-15T11:44:58.779Z,995.95
2023-01-15T11:45:58.798Z,995.93
2023-01-15T11:46:58.772Z,995.84
2023-01-15T11:47:58.748Z,996.21
2023-01-15T11:48:58.737Z,996.16
2023-01-15T11:49:58.705Z,995.97
2023-01-15T11:50:58.706Z,995.80
2023-01-15T11:51:58.705Z,995.71
2023-01-15T11:52:58.675Z,995.93
2023-01-15T11:53:58.673Z,995.80
2023-01-15T11:54:58.674Z,995.85
2023-01-15T11:55:58.653Z,995.73
2023-01-15T11:56:58.644Z,995.89
2023-01-15T11:57:58.655Z,995.76
2023-01-15T11:58:58.622Z,995.86
2023-01-15T11:59:58.613Z,995.88
2023-01-15T12:00:58.661Z,995.52
2023-01-15T12:01:58.595Z,995.73
2023-01-15T12:02:58.559Z,995.82
2023-01-15T12:03:58.727Z,995.76
2023-01-15T12:04:58.558Z,995.95
2023-01-15T12:05:58.547Z,995.12
2023-01-15T12:06:58.535Z,995.85
2023-01-15T12:07:58.509Z,995.78
2023-01-15T12:08:58.493Z,995.38
2023-01-15T12:09:58.482Z,995.55
2023-01-15T12:10:58.483Z,995.70
2023-01-15T12:11:58.485Z,995.59
2023-01-15T12:12:58.464Z,995.59
2023-01-15T12:13:58.455Z,995.64
2023-01-15T12:14:58.452Z,995.72
2023-01-15T12:15:58.583Z,995.65
2023-01-15T12:16:58.409Z,995.62
2023-01-15T12:17:58.416Z,995.53
2023-01-15T12:18:58.387Z,995.46
2023-01-15T12:19:58.431Z,995.69
2023-01-15T12:20:58.380Z,995.48
2023-01-15T12:21:58.423Z,995.55
2023-01-15T12:22:58.364Z,995.14
2023-01-15T12:23:58.370Z,995.27
2023-01-15T12:24:58.353Z,995.59
2023-01-15T12:25:58.325Z,995.26
2023-01-15T12:26:58.313Z,995.41
2023-01-15T12:27:58.302Z,995.29